Hauptseite
METAR-TAF:

METAR-TAF

Flughäfen :

Sint Maarten, Niederländische Antillen

Princess Juliana International Airport

Breite: 18-03N, Länge: 063-07W, Höhe: 4 m

Beobachtung

Neuester Wetterbericht von vor 54 Minuten, um 08:00 UTC
Wind 8 kt aus Ost/Nordost, variierte zwischen Nordost und Ost
Temperatur 27°C
Luftfeuchtigkeit 89%
Luftdruck 1016 hPa
Sichtweite 10 km oder mehr
Aufgelockert bewölkt in der Höhe von 1800 ft

METAR: TNCM 280800Z 07008KT 040V100 9999 SCT018 27/25 Q1015 A2999 RMK LGT HZ ALQDS

Zeit: 04:54 (08:54 UTC)

Prognose

Neuester Wetterbericht von vor 3 Stunden und 17 Minuten, um 05:37 UTC
Gültige Prognose vom 28 um 06 UTC bis 29 um 06 UTC
Wind 12 kt aus Ost
Sichtweite: 10 km
Aufgelockert bewölkt in der Höhe von 2000 ft

TAF: TNCM 280537Z 2806/2906 09012KT P6SM SCT020

Wetterbeobachtungen und Prognosen von mehr als 4000 Flughäfen (METAR und TAF Bericht).

Die verfügbaren Stationen werden durch gelbe und rote Markierungen auf der Karte dargestellt.

Führen Sie die Maus auf sie, um den Namen der Station zu sehen.

Darauf klicken, um die Beobachtung von Wetterbeobachtungen und Prognosen zu sehen.

Um die Karte zu ändern : klicken Sie auf den grünen Tasten mit einem schwarzen Kreuz Zum Vergrößern, auf den grünen Button mit einem Gedankenstrich zu verkleinern, oder auf die grünen Pfeile für benachbarte Karten.


METAR-TAF: